createdAt,value
2019-06-01T00:00:10.827Z,9.35
2019-06-01T00:05:00.984Z,9.27
2019-06-01T00:10:03.388Z,9.77
2019-06-01T00:15:05.918Z,9.20
2019-06-01T00:20:07.489Z,9.55
2019-06-01T00:25:09.043Z,9.30
2019-06-01T00:30:25.943Z,10.03
2019-06-01T00:35:14.234Z,9.80
2019-06-01T00:40:15.805Z,10.67
2019-06-01T00:45:17.216Z,9.70
2019-06-01T00:50:18.671Z,10.93
2019-06-01T00:55:20.158Z,11.43
2019-06-01T01:00:21.730Z,10.03
2019-06-01T01:05:23.128Z,10.53
2019-06-01T01:10:24.649Z,10.32
2019-06-01T01:15:26.156Z,11.08
2019-06-01T01:20:27.744Z,10.97
2019-06-01T01:25:29.375Z,10.63
2019-06-01T01:30:30.817Z,11.43
2019-06-01T01:35:32.341Z,11.12
2019-06-01T01:40:33.758Z,12.47
2019-06-01T01:45:35.229Z,12.17
2019-06-01T01:50:36.754Z,11.13
2019-06-01T01:55:38.233Z,11.30
2019-06-01T02:00:41.702Z,11.43
2019-06-01T02:05:43.195Z,12.53
2019-06-01T02:10:44.760Z,13.15
2019-06-01T02:15:46.231Z,14.53
2019-06-01T02:20:47.807Z,14.05
2019-06-01T02:25:49.281Z,14.90
2019-06-01T02:30:50.797Z,15.03
2019-06-01T02:35:54.192Z,12.20
2019-06-01T02:40:57.011Z,13.77
2019-06-01T02:46:00.498Z,14.33
2019-06-01T02:51:04.083Z,13.62
2019-06-01T02:56:06.251Z,13.73
2019-06-01T03:01:55.932Z,14.37
2019-06-01T03:06:44.740Z,14.47
2019-06-01T03:11:46.356Z,15.00
2019-06-01T03:16:47.856Z,14.53
2019-06-01T03:21:49.365Z,15.07
2019-06-01T03:26:51.588Z,14.43
2019-06-01T03:31:53.135Z,15.32
2019-06-01T03:36:56.313Z,14.77
2019-06-01T03:41:57.923Z,14.87
2019-06-01T03:46:59.402Z,17.52
2019-06-01T03:52:00.962Z,14.83
2019-06-01T03:57:03.646Z,16.10
2019-06-01T04:02:07.006Z,16.43
2019-06-01T04:07:08.606Z,17.13
2019-06-01T04:12:10.080Z,15.30
2019-06-01T04:17:12.235Z,15.27
2019-06-01T04:22:13.940Z,16.07
2019-06-01T04:27:15.422Z,16.10
2019-06-01T04:32:16.870Z,16.73
2019-06-01T04:37:18.258Z,16.40
2019-06-01T04:42:19.776Z,17.00
2019-06-01T04:47:21.233Z,15.43
2019-06-01T04:52:22.733Z,16.10
2019-06-01T04:57:24.188Z,14.40
2019-06-01T05:02:25.706Z,15.53
2019-06-01T05:07:27.323Z,15.30
2019-06-01T05:12:28.874Z,14.17
2019-06-01T05:17:30.381Z,15.13
2019-06-01T05:22:32.043Z,15.23
2019-06-01T05:27:33.555Z,14.37
2019-06-01T05:32:35.134Z,15.83
2019-06-01T05:37:36.756Z,16.00
2019-06-01T05:42:38.279Z,14.73
2019-06-01T05:47:39.767Z,16.12
2019-06-01T05:52:41.619Z,14.77
2019-06-01T05:57:43.019Z,16.13
2019-06-01T06:02:44.554Z,15.90
2019-06-01T06:07:46.327Z,15.38
2019-06-01T06:12:47.857Z,14.40
2019-06-01T06:17:49.419Z,14.35
2019-06-01T06:22:50.971Z,14.87
2019-06-01T06:27:52.736Z,13.72
2019-06-01T06:32:54.177Z,14.05
2019-06-01T06:37:55.768Z,13.50
2019-06-01T06:42:57.365Z,12.80
2019-06-01T06:47:58.894Z,12.03
2019-06-01T06:53:00.516Z,10.25
2019-06-01T06:58:02.541Z,9.60
2019-06-01T07:03:04.405Z,9.20
2019-06-01T07:08:05.874Z,7.67
2019-06-01T07:13:07.292Z,7.47
2019-06-01T07:18:08.677Z,6.03
2019-06-01T07:23:10.185Z,5.95
2019-06-01T07:28:11.669Z,6.37
2019-06-01T07:33:13.170Z,6.50
2019-06-01T07:38:14.581Z,7.25
2019-06-01T07:43:15.896Z,6.58
2019-06-01T07:48:17.416Z,6.75
2019-06-01T07:53:19.017Z,7.80
2019-06-01T07:58:20.894Z,6.22
2019-06-01T08:03:25.760Z,5.90
2019-06-01T08:08:27.245Z,6.35
2019-06-01T08:13:33.476Z,6.20
2019-06-01T08:18:32.854Z,5.30
2019-06-01T08:23:34.289Z,6.58
2019-06-01T08:28:35.809Z,5.65
2019-06-01T08:33:37.214Z,4.70
2019-06-01T08:38:38.855Z,4.83
2019-06-01T08:43:40.295Z,4.53
2019-06-01T08:48:41.767Z,4.72
2019-06-01T08:53:43.301Z,3.75
2019-06-01T08:58:44.897Z,2.70
2019-06-01T09:03:47.084Z,2.80
2019-06-01T09:08:48.675Z,2.98
2019-06-01T09:13:52.271Z,2.72
2019-06-01T09:18:53.527Z,2.92
2019-06-01T09:23:55.012Z,2.77
2019-06-01T09:28:56.570Z,3.02
2019-06-01T09:33:58.060Z,3.20
2019-06-01T09:38:59.614Z,4.85
2019-06-01T09:44:01.266Z,4.25
2019-06-01T09:49:02.692Z,4.10
2019-06-01T09:54:04.099Z,5.00
2019-06-01T09:59:06.773Z,4.40
2019-06-01T10:04:08.273Z,4.40
2019-06-01T10:09:09.805Z,4.28
2019-06-01T10:14:11.384Z,3.60
2019-06-01T10:19:12.810Z,4.03
2019-06-01T10:24:14.366Z,4.10
2019-06-01T10:29:15.964Z,3.47
2019-06-01T10:34:17.467Z,3.95
2019-06-01T10:39:19.855Z,4.62
2019-06-01T10:44:21.452Z,3.60
2019-06-01T10:49:22.935Z,3.85
2019-06-01T10:54:24.459Z,4.20
2019-06-01T10:59:26.026Z,4.53
2019-06-01T11:04:27.853Z,4.83
2019-06-01T11:09:29.389Z,4.30
2019-06-01T11:14:32.901Z,4.47
2019-06-01T11:19:35.268Z,5.03
2019-06-01T11:24:37.446Z,5.67
2019-06-01T11:29:47.858Z,5.37
2019-06-01T11:34:42.541Z,5.72
2019-06-01T11:39:44.782Z,5.95
2019-06-01T11:44:46.473Z,5.87
2019-06-01T11:49:47.951Z,5.65
2019-06-01T11:54:49.556Z,5.28
2019-06-01T11:59:51.011Z,5.80
2019-06-01T12:04:52.379Z,5.40
2019-06-01T12:09:53.916Z,4.87
2019-06-01T12:14:55.426Z,5.28
2019-06-01T12:19:56.983Z,4.55
2019-06-01T12:24:58.543Z,5.03
2019-06-01T12:29:59.950Z,4.10
2019-06-01T12:35:03.362Z,4.70
2019-06-01T12:40:07.766Z,4.37
2019-06-01T12:45:16.442Z,3.98
2019-06-01T12:50:18.003Z,5.00
2019-06-01T12:55:19.726Z,4.78
2019-06-01T13:00:21.195Z,4.33
2019-06-01T13:05:22.705Z,4.70
2019-06-01T13:10:25.402Z,5.50
2019-06-01T13:15:28.770Z,6.03
2019-06-01T13:20:30.363Z,5.50
2019-06-01T13:25:31.893Z,4.80
2019-06-01T13:30:33.508Z,5.15
2019-06-01T13:35:34.990Z,4.20
2019-06-01T13:40:36.660Z,5.58
2019-06-01T13:45:38.161Z,5.60
2019-06-01T13:50:39.688Z,4.12
2019-06-01T13:55:41.235Z,4.90
2019-06-01T14:00:42.760Z,5.22
2019-06-01T14:05:44.691Z,5.22
2019-06-01T14:10:47.162Z,4.67
2019-06-01T14:15:49.495Z,6.00
2019-06-01T14:20:51.754Z,6.03
2019-06-01T14:25:54.272Z,4.92
2019-06-01T14:30:56.461Z,5.33
2019-06-01T14:35:58.140Z,5.50
2019-06-01T14:40:59.482Z,6.20
2019-06-01T14:46:00.872Z,5.50
2019-06-01T14:51:02.341Z,5.55
2019-06-01T14:56:03.977Z,5.92
2019-06-01T15:01:05.638Z,4.90
2019-06-01T15:06:07.171Z,6.28
2019-06-01T15:11:08.773Z,7.00
2019-06-01T15:16:10.307Z,4.90
2019-06-01T15:21:11.761Z,5.92
2019-06-01T15:26:13.059Z,5.55
2019-06-01T15:31:16.786Z,5.62
2019-06-01T15:36:18.340Z,4.97
2019-06-01T15:41:20.114Z,4.85
2019-06-01T15:46:21.876Z,4.17
2019-06-01T15:51:25.830Z,5.40
2019-06-01T15:56:27.385Z,5.92
2019-06-01T16:01:28.820Z,6.55
2019-06-01T16:06:30.435Z,5.45
2019-06-01T16:11:31.985Z,4.42
2019-06-01T16:16:33.437Z,5.00
2019-06-01T16:21:35.116Z,4.65
2019-06-01T16:26:36.629Z,4.28
2019-06-01T16:31:38.113Z,4.37
2019-06-01T16:36:41.795Z,5.30
2019-06-01T16:41:43.448Z,4.50
2019-06-01T16:46:44.955Z,4.65
2019-06-01T16:51:53.201Z,4.40
2019-06-01T16:56:55.930Z,5.37
2019-06-01T17:01:58.987Z,4.87
2019-06-01T17:07:00.778Z,4.60
2019-06-01T17:12:03.453Z,4.55
2019-06-01T17:17:05.228Z,4.37
2019-06-01T17:22:07.683Z,5.10
2019-06-01T17:27:09.427Z,4.33
2019-06-01T17:32:23.590Z,4.37
2019-06-01T17:37:14.687Z,4.95
2019-06-01T17:42:16.358Z,4.55
2019-06-01T17:47:17.902Z,4.50
2019-06-01T17:52:19.376Z,4.92
2019-06-01T17:57:20.822Z,4.90
2019-06-01T18:02:22.421Z,5.12
2019-06-01T18:07:23.853Z,4.17
2019-06-01T18:12:25.379Z,4.78
2019-06-01T18:17:26.947Z,5.60
2019-06-01T18:22:28.403Z,5.90
2019-06-01T18:27:30.023Z,7.33
2019-06-01T18:32:31.634Z,7.70
2019-06-01T18:37:33.170Z,7.75
2019-06-01T18:42:34.703Z,6.90
2019-06-01T18:47:36.237Z,7.67
2019-06-01T18:52:38.033Z,8.70
2019-06-01T18:57:40.317Z,9.45
2019-06-01T19:02:42.328Z,9.25
2019-06-01T19:07:51.025Z,10.03
2019-06-01T19:12:52.770Z,10.15
2019-06-01T19:17:56.480Z,10.75
2019-06-01T19:22:57.786Z,10.43
2019-06-01T19:27:59.255Z,10.13
2019-06-01T19:33:00.765Z,10.13
2019-06-01T19:38:02.453Z,10.00
2019-06-01T19:43:04.402Z,10.18
2019-06-01T19:48:05.932Z,9.85
2019-06-01T19:53:08.536Z,8.83
2019-06-01T19:58:10.547Z,8.68
2019-06-01T20:03:14.764Z,7.95
2019-06-01T20:08:18.054Z,9.50
2019-06-01T20:13:21.427Z,9.60
2019-06-01T20:18:25.805Z,9.95
2019-06-01T20:23:27.470Z,9.73
2019-06-01T20:28:31.210Z,8.78
2019-06-01T20:33:33.479Z,8.70
2019-06-01T20:38:35.152Z,9.15
2019-06-01T20:43:36.775Z,10.25
2019-06-01T20:48:42.085Z,9.48
2019-06-01T20:53:43.463Z,10.15
2019-06-01T20:58:45.002Z,10.25
2019-06-01T21:03:46.876Z,10.72
2019-06-01T21:08:48.392Z,10.68
2019-06-01T21:13:49.978Z,10.63
2019-06-01T21:19:01.530Z,10.43
2019-06-01T21:24:03.334Z,11.28
2019-06-01T21:29:05.060Z,10.93
2019-06-01T21:34:06.468Z,10.90
2019-06-01T21:39:08.015Z,12.50
2019-06-01T21:44:09.505Z,12.13
2019-06-01T21:49:11.075Z,12.98
2019-06-01T21:54:12.540Z,14.03
2019-06-01T21:59:14.049Z,14.90
2019-06-01T22:04:16.637Z,14.20
2019-06-01T22:09:19.108Z,15.90
2019-06-01T22:14:21.345Z,14.85
2019-06-01T22:19:23.889Z,15.58
2019-06-01T22:24:26.004Z,15.35
2019-06-01T22:29:28.599Z,15.60
2019-06-01T22:34:30.228Z,14.60
2019-06-01T22:39:31.636Z,16.37
2019-06-01T22:44:33.146Z,14.87
2019-06-01T22:49:34.653Z,16.12
2019-06-01T22:54:36.231Z,15.08
2019-06-01T22:59:37.648Z,15.38
2019-06-01T23:04:39.040Z,14.55
2019-06-01T23:09:40.606Z,14.33
2019-06-01T23:14:42.113Z,14.00
2019-06-01T23:19:43.635Z,15.95
2019-06-01T23:24:45.167Z,16.23
2019-06-01T23:29:46.706Z,14.98
2019-06-01T23:34:48.206Z,15.43
2019-06-01T23:39:49.857Z,14.98
2019-06-01T23:44:51.332Z,15.38
2019-06-01T23:49:52.833Z,15.88
2019-06-01T23:54:54.306Z,17.90
2019-06-01T23:59:55.829Z,17.45
